Time;durP1;ratioP1;P1;durP2;ratioP2;P2;SDS_P1;SDS_P2;PMS_P1;PMS_P2;Temp;Humidity;BMP_temperature;BMP_pressure;BME280_temperature;BME280_humidity;BME280_pressure;Samples;Min_cycle;Max_cycle;Signal;HPM_P1;HPM_P2
2021/06/24 00:00:57;;;;;;;14.85;10.18;;;19.60;99.90;;;;;;5069519;28;21030;-65
2021/06/24 00:03:26;;;;;;;14.93;9.18;;;19.50;99.90;;;;;;5069110;28;20425;-65
2021/06/24 00:05:53;;;;;;;15.70;9.25;;;19.50;99.90;;;;;;5067865;28;20066;-65
2021/06/24 00:08:23;;;;;;;14.07;8.95;;;19.50;99.90;;;;;;5066894;28;20047;-65
2021/06/24 00:10:52;;;;;;;12.50;9.38;;;19.60;99.90;;;;;;5067450;28;20112;-65
2021/06/24 00:13:20;;;;;;;13.32;9.48;;;19.60;99.90;;;;;;5067536;28;20101;-65
2021/06/24 00:15:47;;;;;;;14.38;9.40;;;19.60;99.90;;;;;;5067209;28;20040;-64
2021/06/24 00:18:14;;;;;;;15.25;10.30;;;19.50;99.90;;;;;;5066409;28;20051;-65
2021/06/24 00:20:42;;;;;;;13.98;9.50;;;19.40;99.90;;;;;;5067494;28;20052;-65
2021/06/24 00:23:09;;;;;;;13.52;8.50;;;19.40;99.90;;;;;;5067071;28;20142;-65
2021/06/24 00:25:38;;;;;;;13.07;9.38;;;19.30;99.90;;;;;;5066528;28;20085;-65
2021/06/24 00:28:06;;;;;;;12.75;8.88;;;19.30;99.90;;;;;;5065774;28;20416;-65
2021/06/24 00:30:36;;;;;;;16.30;8.88;;;19.40;99.90;;;;;;5066645;28;20048;-65
2021/06/24 00:33:04;;;;;;;12.75;9.45;;;19.30;99.90;;;;;;5050312;28;20142;-65
2021/06/24 00:35:31;;;;;;;12.80;8.60;;;19.40;99.90;;;;;;5066743;28;20500;-65
2021/06/24 00:37:58;;;;;;;15.00;8.75;;;19.40;99.90;;;;;;5065988;28;20894;-65
2021/06/24 00:40:25;;;;;;;13.85;9.45;;;19.30;99.90;;;;;;5067479;28;20044;-65
2021/06/24 00:42:55;;;;;;;15.10;9.02;;;19.30;99.90;;;;;;5065989;28;20101;-65
2021/06/24 00:45:22;;;;;;;11.85;9.20;;;19.40;99.90;;;;;;5066713;28;20056;-65
2021/06/24 00:47:49;;;;;;;11.73;8.52;;;19.30;99.90;;;;;;5065818;28;20047;-65
2021/06/24 00:50:16;;;;;;;14.45;8.48;;;19.30;99.90;;;;;;5066596;28;20048;-65
2021/06/24 00:52:43;;;;;;;11.10;8.80;;;19.30;99.90;;;;;;5066009;28;20138;-65
2021/06/24 00:55:11;;;;;;;12.75;7.85;;;19.20;99.90;;;;;;5066671;28;20137;-65
2021/06/24 00:57:38;;;;;;;11.85;8.75;;;19.30;99.90;;;;;;5064992;28;20040;-65
2021/06/24 01:00:09;;;;;;;12.25;8.38;;;19.30;99.90;;;;;;5066629;28;20409;-65
2021/06/24 01:02:39;;;;;;;10.80;7.78;;;19.30;99.90;;;;;;5066350;28;20052;-65
2021/06/24 01:05:07;;;;;;;11.85;8.18;;;19.40;99.90;;;;;;5067074;28;20048;-65
2021/06/24 01:07:34;;;;;;;11.00;8.18;;;19.30;99.90;;;;;;5065797;28;20039;-65
2021/06/24 01:10:01;;;;;;;10.40;7.43;;;19.30;99.90;;;;;;5065990;28;20063;-65
2021/06/24 01:12:28;;;;;;;11.10;8.25;;;19.30;99.90;;;;;;5066703;28;20056;-65
2021/06/24 01:14:57;;;;;;;12.05;7.68;;;19.30;99.90;;;;;;5066652;28;20577;-65
2021/06/24 01:17:25;;;;;;;13.52;8.25;;;19.30;99.90;;;;;;5065080;28;20121;-65
2021/06/24 01:19:55;;;;;;;10.57;7.72;;;19.30;99.90;;;;;;5066074;28;20056;-65
2021/06/24 01:22:22;;;;;;;12.20;8.00;;;19.30;99.90;;;;;;5066707;28;20582;-65
2021/06/24 01:24:51;;;;;;;12.40;7.90;;;19.30;99.90;;;;;;5066524;28;20056;-65
2021/06/24 01:27:18;;;;;;;13.88;8.10;;;19.30;99.90;;;;;;5066776;28;20060;-65
2021/06/24 01:29:45;;;;;;;9.88;7.63;;;19.40;99.90;;;;;;5066072;28;21200;-65
2021/06/24 01:32:12;;;;;;;15.10;8.52;;;19.30;99.90;;;;;;5066020;28;20113;-65
2021/06/24 01:34:42;;;;;;;11.88;8.23;;;19.30;99.90;;;;;;5067432;28;20495;-65
2021/06/24 01:37:09;;;;;;;12.73;7.90;;;19.30;99.90;;;;;;5066143;28;20101;-65
2021/06/24 01:39:36;;;;;;;9.13;7.32;;;19.30;99.90;;;;;;5065659;28;20404;-65
2021/06/24 01:42:05;;;;;;;12.43;9.00;;;19.20;99.90;;;;;;5067179;28;20096;-65
2021/06/24 01:44:35;;;;;;;14.13;8.65;;;19.10;99.90;;;;;;5066833;28;20052;-65
2021/06/24 01:47:03;;;;;;;12.15;8.10;;;19.10;99.90;;;;;;5066234;28;20508;-64
2021/06/24 01:49:32;;;;;;;10.73;8.15;;;19.10;99.90;;;;;;5065050;28;20051;-65
2021/06/24 01:51:59;;;;;;;11.73;7.82;;;19.10;99.90;;;;;;5066773;28;20047;-65
2021/06/24 01:54:26;;;;;;;12.63;8.10;;;19.10;99.90;;;;;;5066993;28;20475;-65
2021/06/24 01:56:53;;;;;;;11.48;8.15;;;19.10;99.90;;;;;;5065913;28;20051;-65
2021/06/24 01:59:22;;;;;;;11.27;8.15;;;19.10;99.90;;;;;;5064897;28;20056;-65
2021/06/24 02:01:49;;;;;;;10.70;7.43;;;19.10;99.90;;;;;;5065371;28;20048;-65
2021/06/24 02:04:16;;;;;;;11.73;7.65;;;19.00;99.90;;;;;;5064848;28;20068;-65
2021/06/24 02:06:43;;;;;;;11.05;6.93;;;19.00;99.90;;;;;;5065284;28;20109;-64
2021/06/24 02:09:10;;;;;;;11.05;7.65;;;19.00;99.90;;;;;;5067918;28;20059;-65
2021/06/24 02:11:37;;;;;;;11.52;7.45;;;19.00;99.90;;;;;;5070011;28;20062;-65
2021/06/24 02:14:04;;;;;;;9.68;7.45;;;19.10;99.90;;;;;;5069249;28;20055;-65
2021/06/24 02:16:32;;;;;;;10.38;7.00;;;18.90;99.90;;;;;;5069518;28;20051;-65
2021/06/24 02:18:59;;;;;;;11.20;7.07;;;19.00;99.90;;;;;;5069004;28;20052;-65
2021/06/24 02:21:26;;;;;;;11.88;7.57;;;19.10;99.90;;;;;;5069225;28;20051;-65
2021/06/24 02:23:53;;;;;;;8.88;6.95;;;18.90;99.90;;;;;;5069810;28;20401;-65
2021/06/24 02:26:20;;;;;;;10.70;7.60;;;18.90;99.90;;;;;;5069944;28;20060;-64
2021/06/24 02:28:47;;;;;;;10.80;7.20;;;18.90;99.90;;;;;;5068837;28;20489;-64
2021/06/24 02:31:15;;;;;;;8.70;6.40;;;18.90;99.90;;;;;;5068524;28;20471;-65
2021/06/24 02:33:44;;;;;;;8.95;7.00;;;18.90;99.90;;;;;;5069413;28;21256;-65
2021/06/24 02:36:11;;;;;;;10.18;7.03;;;18.90;99.90;;;;;;5069213;28;20073;-65
2021/06/24 02:38:38;;;;;;;12.23;7.63;;;19.00;99.90;;;;;;5069326;28;20044;-64
2021/06/24 02:41:05;;;;;;;10.15;6.75;;;19.00;99.90;;;;;;5069049;28;20565;-64
2021/06/24 02:43:32;;;;;;;10.45;7.57;;;18.90;99.90;;;;;;5068104;28;20093;-65
2021/06/24 02:45:59;;;;;;;11.88;6.60;;;19.00;99.90;;;;;;5069155;28;20062;-65
2021/06/24 02:48:26;;;;;;;10.35;6.80;;;18.90;99.90;;;;;;5069492;28;20105;-65
2021/06/24 02:50:55;;;;;;;10.27;6.75;;;19.00;99.90;;;;;;5069047;28;20059;-64
2021/06/24 02:53:22;;;;;;;10.98;6.80;;;19.10;99.90;;;;;;5070138;28;20047;-65
2021/06/24 02:55:49;;;;;;;11.93;6.88;;;19.10;99.90;;;;;;5068979;28;20055;-65
2021/06/24 02:58:16;;;;;;;10.05;6.75;;;19.10;99.90;;;;;;5067920;28;20131;-65
2021/06/24 03:00:43;;;;;;;12.45;7.28;;;19.20;99.90;;;;;;5069796;28;20062;-64
2021/06/24 03:03:10;;;;;;;12.55;7.20;;;19.20;99.90;;;;;;5068283;28;20040;-65
2021/06/24 03:05:37;;;;;;;11.02;6.88;;;19.20;99.90;;;;;;5069273;28;20131;-64
2021/06/24 03:08:06;;;;;;;8.90;6.55;;;19.20;99.90;;;;;;5068648;28;20060;-65
2021/06/24 03:10:33;;;;;;;10.20;7.57;;;19.30;99.90;;;;;;5069915;28;20052;-64
2021/06/24 03:13:01;;;;;;;11.05;7.47;;;19.20;99.90;;;;;;5068652;28;20052;-65
2021/06/24 03:15:31;;;;;;;10.43;7.15;;;19.10;99.90;;;;;;5068445;28;21289;-65
2021/06/24 03:17:58;;;;;;;12.35;7.85;;;19.20;99.90;;;;;;5067579;28;20044;-65
2021/06/24 03:20:28;;;;;;;11.68;8.52;;;19.10;99.90;;;;;;5067775;28;20052;-65
2021/06/24 03:22:57;;;;;;;11.30;8.05;;;19.20;99.90;;;;;;5069742;28;20056;-65
2021/06/24 03:25:26;;;;;;;12.45;7.05;;;19.20;99.90;;;;;;5067918;28;20056;-65
2021/06/24 03:27:57;;;;;;;16.65;8.75;;;19.20;99.90;;;;;;5068169;28;20362;-65
2021/06/24 03:30:24;;;;;;;10.73;8.02;;;19.20;99.90;;;;;;5069581;28;20060;-65
2021/06/24 03:32:51;;;;;;;12.90;8.35;;;19.20;99.90;;;;;;5069013;28;20097;-64
2021/06/24 03:35:18;;;;;;;13.05;8.30;;;19.20;99.90;;;;;;5069800;28;20067;-65
2021/06/24 03:37:45;;;;;;;12.52;9.13;;;19.10;99.90;;;;;;5066942;28;20043;-65
2021/06/24 03:40:17;;;;;;;14.55;9.45;;;19.10;99.90;;;;;;5068403;28;20152;-65
2021/06/24 03:42:46;;;;;;;13.70;9.77;;;19.00;99.90;;;;;;5068932;28;21009;-65
2021/06/24 03:45:15;;;;;;;14.18;10.30;;;19.00;99.90;;;;;;5069083;28;20056;-65
2021/06/24 03:47:42;;;;;;;13.68;9.57;;;19.00;99.90;;;;;;5067392;28;20467;-65
2021/06/24 03:50:10;;;;;;;15.52;10.20;;;19.00;99.90;;;;;;5069063;28;20546;-65
2021/06/24 03:52:37;;;;;;;13.93;10.20;;;18.90;99.90;;;;;;5068524;28;20051;-65
2021/06/24 03:55:06;;;;;;;14.38;10.23;;;18.90;99.90;;;;;;5069394;28;20044;-65
2021/06/24 03:57:34;;;;;;;13.65;10.32;;;18.90;99.90;;;;;;5068205;28;20303;-65
2021/06/24 04:00:02;;;;;;;14.85;10.90;;;18.90;99.90;;;;;;5068193;28;20465;-65
2021/06/24 04:02:29;;;;;;;15.57;10.55;;;18.90;99.90;;;;;;5068516;28;20048;-64
2021/06/24 04:04:56;;;;;;;15.20;10.57;;;18.90;99.90;;;;;;5068718;28;20051;-65
2021/06/24 04:07:23;;;;;;;15.23;10.88;;;18.90;99.90;;;;;;5068584;28;20048;-64
2021/06/24 04:09:50;;;;;;;16.33;11.00;;;18.90;99.90;;;;;;5067336;28;20125;-65
2021/06/24 04:12:17;;;;;;;16.73;12.40;;;18.90;99.90;;;;;;5069259;28;20543;-64
2021/06/24 04:14:44;;;;;;;14.23;10.98;;;19.00;99.90;;;;;;5068688;28;20474;-64
2021/06/24 04:17:12;;;;;;;18.88;11.65;;;19.00;99.90;;;;;;5068276;28;20458;-64
2021/06/24 04:19:42;;;;;;;16.10;12.00;;;18.90;99.90;;;;;;5067153;28;20229;-64
2021/06/24 04:22:10;;;;;;;15.32;11.02;;;18.70;99.90;;;;;;5068807;28;20113;-64
2021/06/24 04:24:37;;;;;;;18.33;12.13;;;18.80;99.90;;;;;;5065274;28;20052;-64
2021/06/24 04:27:04;;;;;;;17.85;11.05;;;18.70;99.90;;;;;;5069202;28;20047;-64
2021/06/24 04:29:31;;;;;;;15.77;10.70;;;18.70;99.90;;;;;;5067560;28;20040;-64
2021/06/24 04:31:59;;;;;;;14.90;10.70;;;18.70;99.90;;;;;;5068010;28;20079;-64
2021/06/24 04:34:28;;;;;;;19.02;12.02;;;18.70;99.90;;;;;;5067494;28;20531;-64
2021/06/24 04:36:54;;;;;;;15.70;10.88;;;18.70;99.90;;;;;;5067596;28;20101;-65
2021/06/24 04:39:22;;;;;;;21.38;11.52;;;18.70;99.90;;;;;;5064341;28;20101;-65
2021/06/24 04:41:48;;;;;;;17.10;11.10;;;18.60;99.90;;;;;;5068926;28;20466;-65
2021/06/24 04:44:16;;;;;;;14.77;10.30;;;18.60;99.90;;;;;;5070177;28;20608;-65
2021/06/24 04:46:43;;;;;;;17.10;10.70;;;18.50;99.90;;;;;;5067212;28;20549;-65
2021/06/24 04:49:10;;;;;;;16.92;10.23;;;18.70;99.90;;;;;;5065954;28;20048;-65
2021/06/24 04:51:38;;;;;;;14.48;10.75;;;18.80;99.90;;;;;;5068299;28;20458;-65
2021/06/24 04:54:06;;;;;;;18.17;10.43;;;18.80;99.90;;;;;;5070180;28;20544;-65
2021/06/24 04:56:33;;;;;;;17.85;10.43;;;18.80;99.90;;;;;;5071695;28;20458;-65
2021/06/24 04:59:00;;;;;;;15.70;9.52;;;18.80;99.90;;;;;;5068943;28;20040;-65
2021/06/24 05:01:27;;;;;;;17.00;10.75;;;18.60;99.90;;;;;;5070902;28;20490;-65
2021/06/24 05:03:54;;;;;;;16.55;10.38;;;18.60;99.90;;;;;;5070459;28;20067;-66
2021/06/24 05:06:21;;;;;;;17.63;10.77;;;18.60;99.90;;;;;;5068895;28;20055;-66
2021/06/24 05:08:50;;;;;;;26.13;11.27;;;18.70;99.90;;;;;;5067365;28;20044;-66
2021/06/24 05:11:17;;;;;;;32.75;16.83;;;18.80;99.90;;;;;;5066043;28;20060;-66
2021/06/24 05:13:44;;;;;;;22.88;12.85;;;18.80;99.90;;;;;;5065556;28;20073;-66
2021/06/24 05:16:11;;;;;;;26.83;13.55;;;18.70;99.90;;;;;;5068445;28;20044;-65
2021/06/24 05:18:39;;;;;;;21.30;14.02;;;18.70;99.90;;;;;;5066307;28;20084;-66
2021/06/24 05:21:06;;;;;;;20.08;14.30;;;18.50;99.90;;;;;;5063331;28;20520;-66
2021/06/24 05:23:33;;;;;;;22.95;14.75;;;18.60;99.90;;;;;;5066264;28;20767;-65
2021/06/24 05:26:02;;;;;;;25.13;15.98;;;18.50;99.90;;;;;;5071268;28;20052;-65
2021/06/24 05:28:29;;;;;;;20.85;15.23;;;18.40;99.90;;;;;;5067132;28;20078;-66
2021/06/24 05:30:56;;;;;;;21.50;14.05;;;18.30;99.90;;;;;;5069603;28;20044;-65
2021/06/24 05:33:23;;;;;;;24.02;15.15;;;18.30;99.90;;;;;;5063357;28;20048;-65
2021/06/24 05:35:51;;;;;;;26.10;16.50;;;18.30;99.90;;;;;;5067269;28;20044;-65
2021/06/24 05:38:19;;;;;;;27.85;16.63;;;18.30;99.90;;;;;;5065936;28;20048;-65
2021/06/24 05:40:47;;;;;;;31.13;16.35;;;18.30;99.90;;;;;;5066866;28;20051;-66
2021/06/24 05:43:16;;;;;;;31.60;19.48;;;18.20;99.90;;;;;;5066922;28;20051;-66
2021/06/24 05:45:44;;;;;;;26.52;18.33;;;18.30;99.90;;;;;;5069526;28;20044;-66
2021/06/24 05:48:11;;;;;;;27.42;19.15;;;18.30;99.90;;;;;;5068436;28;20056;-67
2021/06/24 05:50:39;;;;;;;26.83;16.63;;;18.30;99.90;;;;;;5078037;28;20106;-66
2021/06/24 05:53:06;;;;;;;28.02;18.48;;;18.10;99.90;;;;;;5070336;28;20052;-65
2021/06/24 05:55:49;;;;;;;26.52;17.77;;;18.10;99.90;;;;;;5064529;28;20039;-65
2021/06/24 05:58:19;;;;;;;26.70;19.83;;;18.10;99.90;;;;;;5060910;28;20458;-65
2021/06/24 06:00:47;;;;;;;33.05;21.60;;;18.10;99.90;;;;;;5066186;28;20569;-65
2021/06/24 06:03:14;;;;;;;37.05;23.08;;;18.10;99.90;;;;;;5070689;28;21341;-65
2021/06/24 06:05:41;;;;;;;47.83;24.95;;;18.20;99.90;;;;;;5072594;28;20409;-65
2021/06/24 06:08:09;;;;;;;35.20;24.20;;;18.20;99.90;;;;;;5072486;28;20048;-65
2021/06/24 06:10:38;;;;;;;39.47;24.92;;;18.20;99.90;;;;;;5071617;28;20059;-65
2021/06/24 06:13:06;;;;;;;36.95;22.35;;;18.20;99.90;;;;;;5072679;28;20454;-65
2021/06/24 06:15:35;;;;;;;29.95;20.70;;;18.10;99.90;;;;;;5070700;28;20073;-65
2021/06/24 06:18:02;;;;;;;34.58;23.73;;;18.10;99.90;;;;;;5068885;28;20067;-65
2021/06/24 06:20:29;;;;;;;45.80;25.00;;;18.20;99.90;;;;;;5070010;28;20588;-65
2021/06/24 06:22:56;;;;;;;40.80;26.05;;;18.30;99.90;;;;;;5069559;28;20052;-66
2021/06/24 06:25:23;;;;;;;35.20;23.48;;;18.30;99.90;;;;;;5069092;28;20055;-65
2021/06/24 06:27:50;;;;;;;36.22;23.88;;;18.40;99.90;;;;;;5068826;28;20048;-66
2021/06/24 06:30:18;;;;;;;47.47;26.90;;;18.40;99.90;;;;;;5070065;28;20059;-65
2021/06/24 06:32:47;;;;;;;38.30;24.42;;;18.40;99.90;;;;;;5069234;28;20067;-66
2021/06/24 06:35:14;;;;;;;37.63;21.95;;;18.50;99.90;;;;;;5070252;28;20130;-66
2021/06/24 06:37:41;;;;;;;31.77;20.92;;;18.50;99.90;;;;;;5069112;28;20055;-66
2021/06/24 06:40:09;;;;;;;37.05;22.83;;;18.50;99.90;;;;;;5069114;28;20063;-66
2021/06/24 06:42:37;;;;;;;47.20;23.77;;;18.60;99.90;;;;;;5069677;28;20043;-65
2021/06/24 06:45:04;;;;;;;30.52;19.70;;;18.60;99.90;;;;;;5069406;28;20579;-66
2021/06/24 06:47:32;;;;;;;29.65;18.50;;;18.60;99.90;;;;;;5069521;28;20105;-65
2021/06/24 06:50:00;;;;;;;32.15;21.70;;;18.60;99.90;;;;;;5069271;28;20059;-66
2021/06/24 06:52:27;;;;;;;28.88;19.88;;;18.60;99.90;;;;;;5069637;28;20603;-66
2021/06/24 06:54:54;;;;;;;31.02;21.80;;;18.50;99.90;;;;;;5068074;28;20117;-66
2021/06/24 06:57:21;;;;;;;30.38;20.98;;;18.60;99.90;;;;;;5072206;28;20565;-68
2021/06/24 06:59:48;;;;;;;34.20;23.27;;;18.70;99.90;;;;;;5071966;28;20105;-66
2021/06/24 07:02:15;;;;;;;31.58;20.88;;;18.80;99.90;;;;;;5070347;28;20044;-66
2021/06/24 07:04:42;;;;;;;27.98;20.20;;;18.90;99.90;;;;;;5069471;28;20465;-65
2021/06/24 07:07:12;;;;;;;32.38;19.15;;;18.80;99.90;;;;;;5069364;28;20097;-66
2021/06/24 07:09:41;;;;;;;28.42;19.85;;;18.80;99.90;;;;;;5068622;28;20044;-64
2021/06/24 07:12:09;;;;;;;28.55;19.52;;;18.90;99.90;;;;;;5069546;28;20064;-64
2021/06/24 07:14:37;;;;;;;29.25;18.92;;;18.90;99.90;;;;;;5069156;28;20109;-64
2021/06/24 07:17:04;;;;;;;26.05;15.73;;;18.90;99.90;;;;;;5070449;28;20105;-64
2021/06/24 07:19:31;;;;;;;27.92;20.10;;;18.70;99.90;;;;;;5067570;28;20048;-64
2021/06/24 07:21:58;;;;;;;23.05;18.17;;;18.80;99.90;;;;;;5069103;28;20048;-64
2021/06/24 07:24:27;;;;;;;22.25;16.10;;;18.90;99.90;;;;;;5068663;28;20056;-65
2021/06/24 07:26:54;;;;;;;21.05;15.32;;;18.70;99.90;;;;;;5069003;28;20048;-64
2021/06/24 07:29:21;;;;;;;25.83;16.52;;;18.60;99.90;;;;;;5066853;28;20501;-64
2021/06/24 07:31:48;;;;;;;22.27;15.38;;;18.70;99.90;;;;;;5068513;28;20055;-64
2021/06/24 07:34:15;;;;;;;24.73;14.63;;;18.70;99.90;;;;;;5069464;28;20059;-64
2021/06/24 07:36:42;;;;;;;23.85;16.85;;;18.60;99.90;;;;;;5069243;28;20051;-64
2021/06/24 07:39:09;;;;;;;21.83;16.05;;;18.60;99.90;;;;;;5068423;28;20059;-65
2021/06/24 07:41:38;;;;;;;23.05;14.50;;;18.70;99.90;;;;;;5069118;28;20047;-65
2021/06/24 07:44:05;;;;;;;28.60;16.00;;;18.60;99.90;;;;;;5069796;28;20492;-64
2021/06/24 07:46:32;;;;;;;25.23;15.68;;;18.60;99.90;;;;;;5069524;28;20044;-64
2021/06/24 07:48:59;;;;;;;18.92;13.98;;;18.60;99.90;;;;;;5067922;28;20051;-65
2021/06/24 07:51:26;;;;;;;18.23;14.15;;;18.60;99.90;;;;;;5069784;28;20056;-65
2021/06/24 07:53:54;;;;;;;20.50;14.88;;;18.60;99.90;;;;;;5068966;28;20573;-65
2021/06/24 07:56:21;;;;;;;20.10;13.25;;;18.50;99.90;;;;;;5067957;28;20128;-65
2021/06/24 07:58:52;;;;;;;20.77;13.55;;;18.60;99.90;;;;;;5068205;28;20956;-65
2021/06/24 08:01:19;;;;;;;20.60;13.57;;;18.60;99.90;;;;;;5073605;28;20558;-66
2021/06/24 08:03:46;;;;;;;20.77;13.88;;;18.70;99.90;;;;;;5068537;28;20488;-67
2021/06/24 08:06:13;;;;;;;24.77;16.23;;;18.70;99.90;;;;;;5068146;28;20052;-66
2021/06/24 08:08:40;;;;;;;20.35;14.38;;;18.80;99.90;;;;;;5067918;28;20509;-66
2021/06/24 08:11:07;;;;;;;17.10;13.60;;;18.90;99.90;;;;;;5067590;28;20056;-66
2021/06/24 08:13:34;;;;;;;19.15;12.98;;;18.80;99.90;;;;;;5068871;28;20048;-66
2021/06/24 08:16:03;;;;;;;22.23;13.77;;;18.80;99.90;;;;;;5068006;28;20117;-66
2021/06/24 08:18:30;;;;;;;23.52;15.07;;;18.90;99.90;;;;;;5065926;28;20089;-66
2021/06/24 08:20:58;;;;;;;20.60;14.35;;;19.20;99.90;;;;;;5072806;28;20558;-66
2021/06/24 08:23:25;;;;;;;17.33;14.02;;;19.10;99.90;;;;;;5072260;28;20565;-66
2021/06/24 08:25:52;;;;;;;21.65;12.55;;;19.40;99.90;;;;;;5070822;28;20117;-66
2021/06/24 08:28:19;;;;;;;20.13;12.60;;;19.60;99.90;;;;;;5071459;28;20432;-66
2021/06/24 08:30:47;;;;;;;20.75;12.75;;;19.60;99.90;;;;;;5070892;28;20051;-66
2021/06/24 08:33:16;;;;;;;15.98;11.32;;;19.60;99.90;;;;;;5070133;28;20056;-66
2021/06/24 08:35:44;;;;;;;16.92;11.43;;;19.60;99.90;;;;;;5070608;28;20048;-66
2021/06/24 08:38:11;;;;;;;21.38;11.95;;;19.90;99.90;;;;;;5070331;28;20735;-66
2021/06/24 08:40:40;;;;;;;19.15;10.55;;;20.00;99.90;;;;;;5070853;28;20075;-66
2021/06/24 08:43:07;;;;;;;16.73;11.10;;;20.10;99.90;;;;;;5075759;28;20143;-66
2021/06/24 08:45:34;;;;;;;16.42;10.18;;;20.30;99.90;;;;;;5076032;28;20168;-65
2021/06/24 08:48:01;;;;;;;14.20;10.32;;;20.40;99.90;;;;;;5074687;28;20105;-65
2021/06/24 08:50:30;;;;;;;15.25;10.20;;;20.20;99.90;;;;;;5077327;28;20058;-66
2021/06/24 08:52:57;;;;;;;19.08;11.18;;;20.20;99.90;;;;;;5075660;28;20091;-66
2021/06/24 08:55:35;;;;;;;18.42;10.23;;;20.50;99.90;;;;;;5072832;28;20509;-66
2021/06/24 08:58:02;;;;;;;20.20;10.77;;;20.30;99.90;;;;;;5070138;28;20569;-66
2021/06/24 09:00:30;;;;;;;15.45;8.90;;;20.70;99.90;;;;;;5070378;28;20056;-66
2021/06/24 09:02:59;;;;;;;16.67;10.80;;;20.80;99.90;;;;;;5072081;28;20052;-66
2021/06/24 09:05:51;;;;;;;25.85;12.27;;;20.80;99.90;;;;;;5077645;28;20074;-64
2021/06/24 09:08:25;;;;;;;22.50;12.30;;;20.90;99.90;;;;;;5069065;28;20480;-64
2021/06/24 09:11:08;;;;;;;20.67;11.38;;;21.10;99.90;;;;;;5071043;28;20052;-64
2021/06/24 09:13:35;;;;;;;21.98;10.60;;;21.40;99.90;;;;;;5067961;28;20052;-64
2021/06/24 09:16:06;;;;;;;18.60;10.45;;;21.30;99.90;;;;;;5070581;28;20474;-64
2021/06/24 09:18:33;;;;;;;17.02;9.82;;;21.60;99.90;;;;;;5069313;28;20468;-64
2021/06/24 09:21:04;;;;;;;17.58;10.77;;;21.80;99.90;;;;;;5070526;28;20112;-64
2021/06/24 09:23:35;;;;;;;20.25;10.27;;;22.10;99.90;;;;;;5070353;28;20450;-64
2021/06/24 09:26:14;;;;;;;15.43;9.45;;;21.90;99.90;;;;;;5070378;28;20052;-65
2021/06/24 09:28:42;;;;;;;12.80;9.52;;;22.10;99.90;;;;;;5068980;28;20226;-65
2021/06/24 09:31:22;;;;;;;14.43;8.88;;;22.00;99.90;;;;;;5069733;28;20121;-64
2021/06/24 09:33:49;;;;;;;14.90;9.05;;;22.20;99.90;;;;;;5071514;28;20165;-64
2021/06/24 09:39:12;;;;;;;16.13;9.55;;;22.10;99.90;;;;;;5129891;27;20854;-65
2021/06/24 09:41:56;;;;;;;13.50;8.45;;;22.20;99.90;;;;;;5081150;28;20393;-66
2021/06/24 09:44:24;;;;;;;11.93;8.25;;;22.00;99.90;;;;;;5084562;28;20052;-66
2021/06/24 09:46:52;;;;;;;12.23;8.07;;;22.20;99.90;;;;;;5081942;28;20062;-66
2021/06/24 09:49:33;;;;;;;13.07;8.20;;;22.10;99.90;;;;;;5082584;28;20047;-66
2021/06/24 09:52:01;;;;;;;13.77;8.30;;;22.20;99.90;;;;;;5082893;28;20581;-66
2021/06/24 09:54:36;;;;;;;16.90;8.25;;;22.20;99.90;;;;;;5082408;28;20139;-65
2021/06/24 09:57:05;;;;;;;12.85;9.20;;;22.10;99.90;;;;;;5074246;28;21087;-66
2021/06/24 09:59:37;;;;;;;11.32;8.40;;;21.90;99.90;;;;;;5079818;28;20055;-66
2021/06/24 10:02:12;;;;;;;11.85;8.45;;;22.00;99.90;;;;;;5081156;28;20064;-66
2021/06/24 10:04:42;;;;;;;12.52;8.57;;;21.90;99.90;;;;;;5076034;28;20055;-65
2021/06/24 10:07:12;;;;;;;12.75;7.60;;;21.90;99.90;;;;;;5077391;28;20132;-65
2021/06/24 10:09:42;;;;;;;13.07;7.82;;;22.00;99.90;;;;;;5077069;28;20047;-65
2021/06/24 10:12:11;;;;;;;13.05;8.10;;;22.10;99.90;;;;;;5076945;28;20116;-66
2021/06/24 10:14:40;;;;;;;11.18;6.78;;;22.30;99.90;;;;;;5078311;28;20064;-66
2021/06/24 10:17:08;;;;;;;11.27;7.25;;;22.70;99.90;;;;;;5078717;28;20051;-66
2021/06/24 10:19:37;;;;;;;12.40;6.90;;;23.10;99.90;;;;;;5075126;28;20044;-65
2021/06/24 10:22:09;;;;;;;13.15;7.38;;;23.10;99.90;;;;;;5074944;28;20059;-65
2021/06/24 10:24:39;;;;;;;10.15;6.93;;;23.50;99.90;;;;;;5074709;28;20093;-65
2021/06/24 10:27:12;;;;;;;10.50;6.45;;;23.60;99.90;;;;;;5076880;28;20520;-65
2021/06/24 10:29:48;;;;;;;14.18;6.40;;;23.50;99.90;;;;;;5077679;28;20136;-66
2021/06/24 10:32:32;;;;;;;12.13;7.03;;;23.80;99.90;;;;;;5079392;28;20055;-65
2021/06/24 10:35:01;;;;;;;10.95;6.30;;;24.10;99.90;;;;;;5077783;28;20067;-65
2021/06/24 10:37:29;;;;;;;10.50;6.07;;;24.10;99.90;;;;;;5076030;28;20047;-65
2021/06/24 10:39:58;;;;;;;10.90;5.68;;;25.10;99.90;;;;;;5076324;28;20141;-65
2021/06/24 10:42:29;;;;;;;14.23;5.50;;;26.30;99.90;;;;;;5080373;28;20051;-66
2021/06/24 10:45:01;;;;;;;11.88;5.75;;;27.20;99.90;;;;;;5079927;28;20784;-65
2021/06/24 10:47:33;;;;;;;10.95;6.10;;;27.60;99.90;;;;;;5077439;28;20052;-66
2021/06/24 10:50:36;;;;;;;9.10;5.85;;;27.70;99.90;;;;;;5064103;28;20566;-66
2021/06/24 10:53:36;;;;;;;9.77;5.43;;;27.50;99.90;;;;;;5061468;28;20052;-66
2021/06/24 10:56:31;;;;;;;11.75;5.63;;;28.40;99.90;;;;;;5063546;28;20060;-66
2021/06/24 10:59:01;;;;;;;7.72;5.13;;;29.20;99.90;;;;;;5065154;28;20097;-66
2021/06/24 11:01:47;;;;;;;9.38;5.50;;;28.80;99.90;;;;;;5062189;28;20055;-66
2021/06/24 11:04:29;;;;;;;7.47;5.25;;;29.20;99.90;;;;;;5062194;28;20063;-66
2021/06/24 11:06:58;;;;;;;10.88;6.63;;;28.80;99.90;;;;;;5061142;28;20054;-66
2021/06/24 11:09:25;;;;;;;9.52;6.50;;;28.00;99.90;;;;;;5065150;28;20048;-66
2021/06/24 11:11:53;;;;;;;9.13;5.45;;;27.50;99.90;;;;;;5059159;28;20059;-66
2021/06/24 11:14:55;;;;;;;8.68;6.05;;;27.30;99.90;;;;;;5059623;28;20048;-66
2021/06/24 11:17:45;;;;;;;8.98;5.22;;;27.50;99.90;;;;;;5061168;28;20078;-66
2021/06/24 11:20:14;;;;;;;10.43;5.63;;;27.70;99.90;;;;;;5062057;28;20328;-66
2021/06/24 11:22:48;;;;;;;8.07;5.80;;;28.10;99.90;;;;;;5061371;28;20105;-66
2021/06/24 11:25:16;;;;;;;9.25;6.20;;;27.60;99.90;;;;;;5059097;28;20045;-66
2021/06/24 11:27:43;;;;;;;9.68;5.65;;;28.80;99.90;;;;;;5065774;28;20086;-66
2021/06/24 11:30:12;;;;;;;9.23;5.80;;;29.00;99.90;;;;;;5067187;28;20055;-66
2021/06/24 11:32:46;;;;;;;10.93;5.35;;;29.40;99.90;;;;;;5063031;28;20048;-66
2021/06/24 11:35:29;;;;;;;10.48;4.75;;;29.80;99.90;;;;;;5056734;28;20048;-66
2021/06/24 11:38:01;;;;;;;8.10;5.10;;;29.80;99.90;;;;;;5055016;28;20060;-66
2021/06/24 11:40:32;;;;;;;9.82;5.97;;;29.70;99.90;;;;;;5058777;28;21363;-66
2021/06/24 11:43:08;;;;;;;12.98;5.75;;;29.40;99.90;;;;;;5058815;28;21392;-66
2021/06/24 11:45:35;;;;;;;13.55;6.10;;;28.80;99.90;;;;;;5060963;28;20055;-66
2021/06/24 11:48:02;;;;;;;9.85;5.78;;;28.30;99.90;;;;;;5057674;28;20073;-66
2021/06/24 12:04:15;;;;;;;10.05;5.50;;;29.30;99.90;;;;;;5057104;28;20052;-66
2021/06/24 12:06:49;;;;;;;8.55;5.22;;;29.30;99.90;;;;;;5057286;28;20056;-66
2021/06/24 12:09:21;;;;;;;12.98;6.20;;;29.20;99.90;;;;;;5056444;28;20136;-66
2021/06/24 12:11:50;;;;;;;13.07;5.38;;;29.30;99.90;;;;;;5057073;28;20048;-66
2021/06/24 12:14:19;;;;;;;9.18;5.30;;;29.40;99.90;;;;;;5057005;28;20474;-67
2021/06/24 12:17:12;;;;;;;10.00;5.70;;;29.90;99.90;;;;;;5061054;28;20044;-66
2021/06/24 12:19:54;;;;;;;9.98;5.28;;;29.50;99.90;;;;;;5058238;28;20126;-66
2021/06/24 12:22:25;;;;;;;11.20;6.53;;;29.90;99.90;;;;;;5058098;28;20063;-66
2021/06/24 12:24:53;;;;;;;8.55;5.60;;;29.60;99.90;;;;;;5055894;28;20048;-66
2021/06/24 12:27:26;;;;;;;9.93;5.70;;;29.00;99.90;;;;;;5057968;28;20047;-66
2021/06/24 12:29:56;;;;;;;9.68;6.65;;;29.10;99.90;;;;;;5056016;28;20048;-67
2021/06/24 12:32:23;;;;;;;10.13;6.88;;;28.60;99.90;;;;;;5055234;28;20052;-66
2021/06/24 12:34:51;;;;;;;10.18;6.28;;;28.70;99.90;;;;;;5060252;28;20098;-66
2021/06/24 12:37:41;;;;;;;12.10;6.60;;;28.80;99.90;;;;;;5057958;28;20057;-66
2021/06/24 12:40:12;;;;;;;10.82;6.55;;;29.00;99.90;;;;;;5059715;28;20090;-66
2021/06/24 12:42:48;;;;;;;11.40;6.43;;;28.80;99.90;;;;;;5058032;28;20492;-66
2021/06/24 12:45:17;;;;;;;9.93;5.85;;;28.80;99.90;;;;;;5056819;28;20048;-66
2021/06/24 12:47:45;;;;;;;10.98;6.18;;;29.50;99.90;;;;;;5059355;28;20101;-67
2021/06/24 12:50:21;;;;;;;11.60;6.20;;;30.00;99.90;;;;;;5058218;28;20047;-66
2021/06/24 12:52:52;;;;;;;9.18;6.35;;;29.50;99.90;;;;;;5059526;28;20044;-67
2021/06/24 12:55:46;;;;;;;11.30;6.47;;;29.00;99.90;;;;;;5065043;28;20048;-66
2021/06/24 12:58:16;;;;;;;11.48;6.43;;;29.20;99.90;;;;;;5062565;28;20420;-66
2021/06/24 13:00:53;;;;;;;12.27;7.10;;;29.60;99.90;;;;;;5057642;28;20051;-66